Time;durP1;ratioP1;P1;durP2;ratioP2;P2;SDS_P1;SDS_P2;PMS_P1;PMS_P2;Temp;Humidity;BMP_temperature;BMP_pressure;BME280_temperature;BME280_humidity;BME280_pressure;Samples;Min_cycle;Max_cycle;Signal;HPM_P1;HPM_P2
2023/10/16 00:00:29;;;;;;;14.00;6.03;;;;;;;-148.15;100.00;61821.78;4992498;28;20039;-87
2023/10/16 00:02:50;;;;;;;11.10;6.90;;;;;;;-148.15;100.00;61821.78;4977469;28;20083;-87
2023/10/16 00:05:21;;;;;;;11.30;5.80;;;;;;;-148.15;100.00;61821.78;5006468;28;20052;-87
2023/10/16 00:07:50;;;;;;;10.77;5.93;;;;;;;-148.15;100.00;61821.78;5030907;28;20045;-88
2023/10/16 00:10:15;;;;;;;10.93;6.03;;;;;;;-148.15;100.00;61821.78;5030620;28;20120;-87
2023/10/16 00:12:42;;;;;;;14.00;5.57;;;;;;;-148.15;100.00;61821.78;5027615;28;20726;-88
2023/10/16 00:15:08;;;;;;;15.45;5.35;;;;;;;-148.15;100.00;61821.78;5031581;28;20038;-88
2023/10/16 00:19:58;;;;;;;9.77;5.30;;;;;;;-148.15;100.00;61821.78;5248306;22;20315;-87
2023/10/16 00:22:25;;;;;;;6.97;5.23;;;;;;;-148.15;100.00;61821.78;5050107;28;20691;-87
2023/10/16 00:24:51;;;;;;;11.88;5.72;;;;;;;-148.15;100.00;61821.78;5050236;28;20032;-87
2023/10/16 00:27:16;;;;;;;10.33;4.93;;;;;;;-148.15;100.00;61821.78;5030020;28;20025;-87
2023/10/16 00:29:45;;;;;;;8.80;4.50;;;;;;;-148.15;100.00;61821.78;5030495;28;20030;-87
2023/10/16 00:32:11;;;;;;;13.60;4.45;;;;;;;-148.15;100.00;61821.78;5037673;28;20037;-87
2023/10/16 00:34:38;;;;;;;11.90;5.10;;;;;;;-148.15;100.00;61821.78;5050001;28;20031;-87
2023/10/16 00:37:10;;;;;;;14.88;5.40;;;;;;;-148.15;100.00;61821.78;5049390;28;20476;-87
2023/10/16 00:39:37;;;;;;;11.63;5.70;;;;;;;-148.15;100.00;61821.78;5049742;28;20049;-87
2023/10/16 00:42:07;;;;;;;11.25;5.28;;;;;;;-148.15;100.00;61821.78;5050110;28;20040;-88
2023/10/16 00:44:38;;;;;;;11.07;5.03;;;;;;;-148.15;100.00;61821.78;5049783;28;20346;-87
2023/10/16 00:47:05;;;;;;;10.33;5.23;;;;;;;-148.15;100.00;61821.78;5041817;28;20303;-86
2023/10/16 00:49:35;;;;;;;11.18;4.68;;;;;;;-148.15;100.00;61821.78;5029367;28;20021;-87
2023/10/16 00:52:03;;;;;;;13.45;4.57;;;;;;;-148.15;100.00;61821.78;5031022;28;20029;-87
2023/10/16 00:54:31;;;;;;;13.40;4.78;;;;;;;-148.15;100.00;61821.78;5012601;28;20170;-87
2023/10/16 00:57:13;;;;;;;14.40;4.93;;;;;;;-148.15;100.00;61821.78;5029316;28;20484;-87
2023/10/16 00:59:41;;;;;;;11.77;5.28;;;;;;;-148.15;100.00;61821.78;5011556;28;20029;-88
2023/10/16 01:02:09;;;;;;;8.55;4.78;;;;;;;-148.15;100.00;61821.78;5032338;28;20029;-87
2023/10/16 01:04:35;;;;;;;10.20;4.80;;;;;;;-148.15;100.00;61821.78;5039033;28;20028;-88
2023/10/16 01:07:05;;;;;;;11.37;5.33;;;;;;;-148.15;100.00;61821.78;5032556;28;20288;-87
2023/10/16 01:09:35;;;;;;;12.43;5.13;;;;;;;-148.15;100.00;61821.78;5014889;28;20111;-88
2023/10/16 01:12:06;;;;;;;13.05;5.03;;;;;;;-148.15;100.00;61821.78;5032785;28;20021;-88
2023/10/16 01:14:32;;;;;;;11.85;4.63;;;;;;;-148.15;100.00;61821.78;5013461;28;20477;-88
2023/10/16 01:16:57;;;;;;;10.15;4.75;;;;;;;-148.15;100.00;61821.78;5033351;28;20017;-88
2023/10/16 01:19:23;;;;;;;12.23;4.20;;;;;;;-148.15;100.00;61821.78;5034265;28;20029;-88
2023/10/16 01:21:50;;;;;;;20.48;4.70;;;;;;;-148.15;100.00;61821.78;5036713;28;20518;-88
2023/10/16 01:24:16;;;;;;;10.67;5.50;;;;;;;-148.15;100.00;61821.78;5014742;28;20064;-88
2023/10/16 01:26:42;;;;;;;8.43;4.93;;;;;;;-148.15;100.00;61821.78;5030494;28;20465;-87
2023/10/16 01:29:13;;;;;;;15.48;4.82;;;;;;;-148.15;100.00;61821.78;5032276;28;20434;-88
2023/10/16 01:31:40;;;;;;;11.65;5.05;;;;;;;-148.15;100.00;61821.78;5031827;28;20564;-88
2023/10/16 01:34:10;;;;;;;12.30;5.55;;;;;;;-148.15;100.00;61821.78;5035795;28;20036;-88
2023/10/16 01:36:36;;;;;;;11.20;5.05;;;;;;;-148.15;100.00;61821.78;5052210;28;20043;-88
2023/10/16 01:39:07;;;;;;;14.20;5.53;;;;;;;-148.15;100.00;61821.78;5052825;28;20025;-89
2023/10/16 01:41:32;;;;;;;8.88;5.53;;;;;;;-148.15;100.00;61821.78;5052635;28;20079;-88
2023/10/16 01:43:59;;;;;;;12.63;5.53;;;;;;;-148.15;100.00;61821.78;5018130;28;20484;-87
2023/10/16 01:46:24;;;;;;;14.38;5.53;;;;;;;-148.15;100.00;61821.78;5031170;28;20029;-87
2023/10/16 01:48:49;;;;;;;11.70;5.90;;;;;;;-148.15;100.00;61821.78;5039216;28;20420;-88
2023/10/16 01:51:22;;;;;;;13.13;5.77;;;;;;;-148.15;100.00;61821.78;5052170;28;20025;-88
2023/10/16 01:53:49;;;;;;;8.45;5.75;;;;;;;-148.15;100.00;61821.78;5040326;28;20034;-88
2023/10/16 01:56:15;;;;;;;11.00;5.88;;;;;;;-148.15;100.00;61821.78;5013402;28;20112;-88
2023/10/16 01:58:44;;;;;;;9.70;5.87;;;;;;;-148.15;100.00;61821.78;5013901;28;20098;-88
2023/10/16 02:01:17;;;;;;;11.57;6.13;;;;;;;-148.15;100.00;61821.78;5032479;28;20283;-88
2023/10/16 02:03:47;;;;;;;10.15;6.70;;;;;;;-148.15;100.00;61821.78;5033458;28;20061;-88
2023/10/16 02:06:14;;;;;;;13.27;6.68;;;;;;;-148.15;100.00;61821.78;5043659;28;20037;-88
2023/10/16 02:08:40;;;;;;;17.20;7.43;;;;;;;-148.15;100.00;61821.78;5056082;28;20044;-88
2023/10/16 02:11:10;;;;;;;12.20;7.70;;;;;;;-148.15;100.00;61821.78;5036613;28;20048;-88
2023/10/16 02:13:40;;;;;;;13.18;7.03;;;;;;;-148.15;100.00;61821.78;5041111;28;20025;-88
2023/10/16 02:16:10;;;;;;;10.93;7.00;;;;;;;-148.15;100.00;61821.78;5016359;28;20053;-89
2023/10/16 02:18:40;;;;;;;14.07;6.30;;;;;;;-148.15;100.00;61821.78;5033858;28;20044;-88
2023/10/16 02:21:06;;;;;;;10.87;6.80;;;;;;;-148.15;100.00;61821.78;5032513;28;20307;-88
2023/10/16 02:23:32;;;;;;;16.55;7.13;;;;;;;-148.15;100.00;61821.78;5033889;28;20469;-87
2023/10/16 02:26:01;;;;;;;11.48;6.50;;;;;;;-148.15;100.00;61821.78;5031384;28;20032;-88
2023/10/16 02:28:26;;;;;;;10.57;6.53;;;;;;;-148.15;100.00;61821.78;5031493;28;20061;-89
2023/10/16 02:30:52;;;;;;;12.77;7.00;;;;;;;-148.15;100.00;61821.78;5032044;28;20436;-88
2023/10/16 02:33:26;;;;;;;9.10;6.13;;;;;;;-148.15;100.00;61821.78;5031372;28;20974;-88
2023/10/16 02:35:57;;;;;;;14.07;7.43;;;;;;;-148.15;100.00;61821.78;5013084;28;20450;-88
2023/10/16 02:38:28;;;;;;;12.83;6.83;;;;;;;-148.15;100.00;61821.78;5027272;28;20376;-88
2023/10/16 02:41:03;;;;;;;13.10;7.07;;;;;;;-148.15;100.00;61821.78;5045558;28;20029;-88
2023/10/16 02:43:30;;;;;;;12.43;6.82;;;;;;;-148.15;100.00;61821.78;5052901;28;20132;-88
2023/10/16 02:45:56;;;;;;;13.50;7.35;;;;;;;-148.15;100.00;61821.78;5034085;28;20033;-88
2023/10/16 02:48:23;;;;;;;15.05;8.20;;;;;;;-148.15;100.00;61821.78;5032244;28;20105;-88
2023/10/16 02:50:50;;;;;;;14.40;8.13;;;;;;;-148.15;100.00;61821.78;5014774;28;20029;-88
2023/10/16 02:53:21;;;;;;;12.00;8.23;;;;;;;-148.15;100.00;61821.78;5032408;28;20467;-88
2023/10/16 02:56:05;;;;;;;16.87;7.90;;;;;;;-148.15;100.00;61821.78;5032101;28;20606;-88
2023/10/16 03:09:28;;;;;;;15.07;8.73;;;;;;;-148.15;100.00;61821.78;5648335;22;20623;-88
2023/10/16 03:12:09;;;;;;;19.85;9.45;;;;;;;-148.15;100.00;61821.78;4993368;28;20061;-88
2023/10/16 03:14:53;;;;;;;19.50;10.07;;;;;;;-148.15;100.00;61821.78;4991038;28;20118;-88
2023/10/16 03:19:56;;;;;;;13.07;8.90;;;;;;;-148.15;100.00;61821.78;5005002;28;20073;-88
2023/10/16 03:22:22;;;;;;;17.58;8.85;;;;;;;-148.15;100.00;61821.78;4998689;28;20062;-88
2023/10/16 03:24:48;;;;;;;15.37;8.70;;;;;;;-148.15;100.00;61821.78;5006689;28;20054;-89
2023/10/16 03:27:27;;;;;;;14.38;8.27;;;;;;;-148.15;100.00;61821.78;5002090;28;20030;-87
2023/10/16 03:29:54;;;;;;;13.98;9.27;;;;;;;-148.15;100.00;61821.78;4996284;28;20052;-88
2023/10/16 03:32:20;;;;;;;14.85;9.15;;;;;;;-148.15;100.00;61821.78;5000994;28;20156;-87
2023/10/16 03:34:45;;;;;;;14.80;7.97;;;;;;;-148.15;100.00;61821.78;5004193;28;20049;-87
2023/10/16 03:37:10;;;;;;;12.67;8.17;;;;;;;-148.15;100.00;61821.78;5005577;28;20022;-87
2023/10/16 03:39:36;;;;;;;11.37;7.70;;;;;;;-148.15;100.00;61821.78;5012807;28;20673;-88
2023/10/16 03:42:01;;;;;;;13.27;7.40;;;;;;;-148.15;100.00;61821.78;5013601;28;20030;-87
2023/10/16 03:44:27;;;;;;;13.77;7.60;;;;;;;-148.15;100.00;61821.78;4993818;28;20030;-87
2023/10/16 03:46:55;;;;;;;13.20;7.40;;;;;;;-148.15;100.00;61821.78;5011164;28;20477;-88
2023/10/16 03:49:21;;;;;;;13.82;7.85;;;;;;;-148.15;100.00;61821.78;5009123;28;20088;-87
2023/10/16 03:51:48;;;;;;;14.57;7.72;;;;;;;-148.15;100.00;61821.78;5002928;28;20022;-87
2023/10/16 03:54:16;;;;;;;12.80;7.78;;;;;;;-148.15;100.00;61821.78;5010641;28;20022;-87
2023/10/16 03:56:41;;;;;;;15.48;8.88;;;;;;;-148.15;100.00;61821.78;5011034;28;20041;-87
2023/10/16 03:59:07;;;;;;;16.13;8.77;;;;;;;-148.15;100.00;61821.78;5012016;28;20018;-88
2023/10/16 04:01:37;;;;;;;14.48;8.52;;;;;;;-148.15;100.00;61821.78;5011230;28;20037;-88
2023/10/16 04:04:03;;;;;;;18.17;8.50;;;;;;;-148.15;100.00;61821.78;5009850;28;20117;-87
2023/10/16 04:06:30;;;;;;;13.90;8.77;;;;;;;-148.15;100.00;61821.78;5009654;28;20394;-87
2023/10/16 04:08:59;;;;;;;12.18;8.02;;;;;;;-148.15;100.00;61821.78;5015942;28;20044;-87
2023/10/16 04:11:25;;;;;;;12.02;8.55;;;;;;;-148.15;100.00;61821.78;5027074;28;20105;-88
2023/10/16 04:13:52;;;;;;;15.73;8.25;;;;;;;-148.15;100.00;61821.78;5025887;28;20022;-87
2023/10/16 04:21:40;;;;;;;14.73;8.23;;;;;;;-148.15;100.00;61821.78;5015117;28;20029;-87
2023/10/16 04:24:20;;;;;;;13.48;8.43;;;;;;;-148.15;100.00;61821.78;5008464;28;20018;-87
2023/10/16 04:26:56;;;;;;;15.65;8.50;;;;;;;-148.15;100.00;61821.78;5016289;28;20104;-87
2023/10/16 04:29:35;;;;;;;16.63;8.90;;;;;;;-148.15;100.00;61821.78;5017945;28;20056;-86
2023/10/16 04:34:34;;;;;;;14.37;8.13;;;;;;;-148.15;100.00;61821.78;5012487;28;20280;-87
2023/10/16 05:01:17;;;;;;;12.50;8.73;;;;;;;-148.15;100.00;61821.78;5017809;28;20030;-91
2023/10/16 05:16:47;;;;;;;17.75;8.43;;;;;;;-148.15;100.00;61821.78;5023488;28;20041;-91
2023/10/16 05:22:02;;;;;;;16.27;8.77;;;;;;;-148.15;100.00;61821.78;5028685;28;20029;-92
2023/10/16 06:16:35;;;;;;;18.23;10.68;;;;;;;-148.15;100.00;61821.78;5020601;28;20036;-91
2023/10/16 06:19:07;;;;;;;18.40;10.63;;;;;;;-148.15;100.00;61821.78;5012162;28;20104;-91
2023/10/16 06:21:33;;;;;;;17.15;10.23;;;;;;;-148.15;100.00;61821.78;5008302;28;20033;-91
2023/10/16 06:26:53;;;;;;;18.55;10.48;;;;;;;-148.15;100.00;61821.78;4998044;28;20077;-90
2023/10/16 06:29:19;;;;;;;20.40;10.40;;;;;;;-148.15;100.00;61821.78;4999278;28;20030;-90
2023/10/16 06:31:53;;;;;;;19.53;10.50;;;;;;;-148.15;100.00;61821.78;4997407;28;20033;-91
2023/10/16 06:34:19;;;;;;;20.70;10.63;;;;;;;-148.15;100.00;61821.78;5007954;28;20088;-90
2023/10/16 06:36:44;;;;;;;22.10;10.65;;;;;;;-148.15;100.00;61821.78;5011859;28;20030;-90
2023/10/16 06:39:22;;;;;;;20.83;11.10;;;;;;;-148.15;100.00;61821.78;5007099;28;20038;-91
2023/10/16 06:44:29;;;;;;;17.27;10.90;;;;;;;-148.15;100.00;61821.78;5502483;23;20496;-91
2023/10/16 06:47:01;;;;;;;22.73;10.83;;;;;;;-148.15;100.00;61821.78;5006174;28;20018;-90
2023/10/16 06:49:38;;;;;;;18.07;10.53;;;;;;;-148.15;100.00;61821.78;4999238;28;20318;-92
2023/10/16 06:52:05;;;;;;;19.77;11.20;;;;;;;-148.15;100.00;61821.78;4991032;28;20061;-91
2023/10/16 06:54:39;;;;;;;21.20;11.27;;;;;;;-148.15;100.00;61821.78;4990066;28;20080;-88
2023/10/16 06:57:12;;;;;;;20.63;10.82;;;;;;;-148.15;100.00;61821.78;4990510;28;20030;-88
2023/10/16 06:59:41;;;;;;;22.48;11.20;;;;;;;-148.15;100.00;61821.78;4990633;28;20393;-87
2023/10/16 07:02:15;;;;;;;22.00;11.15;;;;;;;-148.15;100.00;61821.78;4990177;28;20129;-86
2023/10/16 07:04:40;;;;;;;23.07;11.50;;;;;;;-148.15;100.00;61821.78;4999165;28;20022;-87
2023/10/16 07:07:14;;;;;;;25.10;12.73;;;;;;;-148.15;100.00;61821.78;4988472;28;20347;-89
2023/10/16 07:09:47;;;;;;;22.48;12.07;;;;;;;-148.15;100.00;61821.78;4982754;28;20026;-89
2023/10/16 07:12:18;;;;;;;19.63;12.65;;;;;;;-148.15;100.00;61821.78;4989699;28;20026;-89
2023/10/16 07:14:55;;;;;;;22.40;12.57;;;;;;;-148.15;100.00;61821.78;4995181;28;20029;-90
2023/10/16 07:17:24;;;;;;;21.27;13.47;;;;;;;-148.15;100.00;61821.78;4996270;28;20281;-85
2023/10/16 07:19:50;;;;;;;23.73;13.75;;;;;;;-148.15;100.00;61821.78;4992671;28;21464;-88
2023/10/16 07:22:16;;;;;;;28.73;15.40;;;;;;;-148.15;100.00;61821.78;4988428;28;20041;-86
2023/10/16 07:24:42;;;;;;;25.23;15.23;;;;;;;-148.15;100.00;61821.78;5005758;28;20033;-90
2023/10/16 07:27:12;;;;;;;20.10;13.83;;;;;;;-148.15;100.00;61821.78;5009038;28;20375;-91
2023/10/16 07:29:41;;;;;;;28.17;14.47;;;;;;;-148.15;100.00;61821.78;4989276;28;20297;-90
2023/10/16 07:32:08;;;;;;;29.55;16.10;;;;;;;-148.15;100.00;61821.78;5006121;28;20033;-88
2023/10/16 07:34:34;;;;;;;31.38;15.38;;;;;;;-148.15;100.00;61821.78;5008757;28;20025;-87
2023/10/16 07:37:00;;;;;;;20.98;13.85;;;;;;;-148.15;100.00;61821.78;4996339;28;20390;-84
2023/10/16 07:39:28;;;;;;;23.90;14.63;;;;;;;-148.15;100.00;61821.78;4990402;28;20482;-88
2023/10/16 07:41:53;;;;;;;23.38;14.90;;;;;;;-148.15;100.00;61821.78;4989892;28;20105;-87
2023/10/16 07:44:19;;;;;;;27.07;15.53;;;;;;;-148.15;100.00;61821.78;5005634;28;20095;-87
2023/10/16 07:46:44;;;;;;;32.07;15.20;;;;;;;-148.15;100.00;61821.78;5000213;28;20405;-87
2023/10/16 07:49:09;;;;;;;23.97;14.70;;;;;;;-148.15;100.00;61821.78;4993044;28;20121;-87
2023/10/16 07:51:35;;;;;;;27.27;15.10;;;;;;;-148.15;100.00;61821.78;4989726;28;20056;-87
2023/10/16 07:54:00;;;;;;;28.03;15.07;;;;;;;-148.15;100.00;61821.78;4990099;28;20520;-86
2023/10/16 07:56:28;;;;;;;23.00;13.33;;;;;;;-148.15;100.00;61821.78;4992510;28;20026;-87
2023/10/16 07:59:07;;;;;;;22.48;13.70;;;;;;;-148.15;100.00;61821.78;4989996;28;20030;-85
2023/10/16 08:01:36;;;;;;;21.17;12.48;;;;;;;-148.15;100.00;61821.78;4990497;28;20053;-87
2023/10/16 08:04:06;;;;;;;25.55;13.77;;;;;;;-148.15;100.00;61821.78;4989142;28;20026;-87
2023/10/16 08:06:39;;;;;;;22.42;13.52;;;;;;;-148.15;100.00;61821.78;4988676;28;20100;-87
2023/10/16 08:11:57;;;;;;;19.50;13.57;;;;;;;-148.15;100.00;61821.78;4971564;28;20054;-89
2023/10/16 08:14:22;;;;;;;27.07;14.43;;;;;;;-148.15;100.00;61821.78;4988990;28;20306;-87
2023/10/16 08:16:48;;;;;;;24.92;13.88;;;;;;;-148.15;100.00;61821.78;4989318;28;20023;-87
2023/10/16 08:19:16;;;;;;;22.27;14.33;;;;;;;-148.15;100.00;61821.78;4990777;28;20038;-89
2023/10/16 08:21:42;;;;;;;23.05;13.50;;;;;;;-148.15;100.00;61821.78;4990083;28;20038;-87
2023/10/16 08:24:08;;;;;;;23.90;13.65;;;;;;;-148.15;100.00;61821.78;4990983;28;20052;-88
2023/10/16 08:26:42;;;;;;;26.63;14.80;;;;;;;-148.15;100.00;61821.78;4987489;28;20113;-87
2023/10/16 08:31:47;;;;;;;19.23;12.55;;;;;;;-148.15;100.00;61821.78;4988049;28;20857;-87
2023/10/16 08:34:21;;;;;;;21.85;12.40;;;;;;;-148.15;100.00;61821.78;4990168;28;20421;-88
2023/10/16 08:36:51;;;;;;;21.73;13.13;;;;;;;-148.15;100.00;61821.78;4989291;28;20027;-90
2023/10/16 08:39:17;;;;;;;20.08;11.90;;;;;;;-148.15;100.00;61821.78;4998484;28;20480;-92
2023/10/16 08:41:43;;;;;;;17.70;10.80;;;;;;;-148.15;100.00;61821.78;4989239;28;20039;-90
2023/10/16 08:44:14;;;;;;;19.93;11.83;;;;;;;-148.15;100.00;61821.78;4989437;28;20033;-86
2023/10/16 08:46:53;;;;;;;21.30;12.20;;;;;;;-148.15;100.00;61821.78;4973024;28;20035;-88
2023/10/16 08:49:23;;;;;;;18.53;11.63;;;;;;;-148.15;100.00;61821.78;4988214;28;20027;-87
2023/10/16 08:51:53;;;;;;;22.03;12.13;;;;;;;-148.15;100.00;61821.78;4988256;28;20767;-86
2023/10/16 08:57:07;;;;;;;18.63;11.25;;;;;;;-148.15;100.00;61821.78;5008571;28;20520;-86
2023/10/16 08:59:34;;;;;;;19.65;10.68;;;;;;;-148.15;100.00;61821.78;4990628;28;20034;-85
2023/10/16 09:02:01;;;;;;;19.65;10.38;;;;;;;-148.15;100.00;61821.78;4992527;28;20030;-85
2023/10/16 09:04:28;;;;;;;15.48;9.57;;;;;;;-148.15;100.00;61821.78;4994902;28;20038;-86
2023/10/16 09:06:57;;;;;;;17.50;10.03;;;;;;;-148.15;100.00;61821.78;4989549;28;20080;-86
2023/10/16 09:09:25;;;;;;;15.13;10.00;;;;;;;-148.15;100.00;61821.78;4988690;28;20304;-86
2023/10/16 09:11:52;;;;;;;13.73;9.85;;;;;;;-148.15;100.00;61821.78;4985533;28;20030;-86
2023/10/16 09:14:17;;;;;;;20.00;10.15;;;;;;;-148.15;100.00;61821.78;4980815;28;20110;-86
2023/10/16 09:16:52;;;;;;;15.87;9.83;;;;;;;-148.15;100.00;61821.78;4998013;28;20054;-88
2023/10/16 09:19:22;;;;;;;17.20;9.38;;;;;;;-148.15;100.00;61821.78;4995196;28;20053;-85
2023/10/16 09:21:52;;;;;;;16.30;7.50;;;;;;;-148.15;100.00;61821.78;5001283;28;20057;-86
2023/10/16 09:24:19;;;;;;;11.20;5.75;;;;;;;-148.15;100.00;61821.78;4996605;28;20481;-86
2023/10/16 09:26:47;;;;;;;11.60;6.28;;;;;;;-148.15;100.00;61821.78;4993827;28;20410;-85
2023/10/16 09:29:15;;;;;;;11.43;5.67;;;;;;;-148.15;100.00;61821.78;4991944;28;20088;-86
2023/10/16 09:31:44;;;;;;;8.93;5.67;;;;;;;-148.15;100.00;61821.78;4991531;28;20289;-87
2023/10/16 09:34:11;;;;;;;12.60;5.90;;;;;;;-148.15;100.00;61821.78;5013051;28;20464;-87
2023/10/16 09:36:37;;;;;;;8.18;5.63;;;;;;;-148.15;100.00;61821.78;5000738;28;21376;-87
2023/10/16 09:39:16;;;;;;;14.57;5.93;;;;;;;-148.15;100.00;61821.78;4992589;28;20085;-87
2023/10/16 09:41:42;;;;;;;11.27;5.93;;;;;;;-148.15;100.00;61821.78;4996266;28;20394;-86
2023/10/16 09:44:22;;;;;;;10.93;5.88;;;;;;;-148.15;100.00;61821.78;5010116;28;20505;-86
2023/10/16 09:49:15;;;;;;;8.40;4.22;;;;;;;-148.15;100.00;61821.78;4990296;28;20093;-83
2023/10/16 09:51:44;;;;;;;7.35;4.88;;;;;;;-148.15;100.00;61821.78;4992412;28;20026;-84
2023/10/16 09:54:11;;;;;;;13.73;5.10;;;;;;;-148.15;100.00;61821.78;4979111;28;20486;-84
2023/10/16 09:56:38;;;;;;;7.07;5.47;;;;;;;-148.15;100.00;61821.78;4998798;28;20327;-84
2023/10/16 09:59:26;;;;;;;8.38;4.80;;;;;;;-148.15;100.00;61821.78;4990155;28;20339;-85
2023/10/16 10:01:55;;;;;;;10.95;4.97;;;;;;;-148.15;100.00;61821.78;4995345;28;20056;-85
2023/10/16 10:04:24;;;;;;;10.07;4.97;;;;;;;-148.15;100.00;61821.78;5011867;28;20485;-89
2023/10/16 10:06:55;;;;;;;8.27;4.63;;;;;;;-148.15;100.00;61821.78;4996192;28;20026;-87
2023/10/16 10:09:41;;;;;;;8.90;4.43;;;;;;;-148.15;100.00;61821.78;4990612;28;20030;-87
2023/10/16 10:12:22;;;;;;;6.37;3.97;;;;;;;-148.15;100.00;61821.78;4987801;28;20343;-85
2023/10/16 10:15:12;;;;;;;5.28;4.00;;;;;;;-148.15;100.00;61821.78;4990120;28;20058;-86
2023/10/16 10:17:40;;;;;;;8.90;3.80;;;;;;;-148.15;100.00;61821.78;4990563;28;20092;-86
2023/10/16 10:20:17;;;;;;;8.15;3.88;;;;;;;-148.15;100.00;61821.78;4991634;28;20022;-85
2023/10/16 10:25:35;;;;;;;4.97;3.30;;;;;;;-148.15;100.00;61821.78;5709260;23;20536;-86
2023/10/16 10:28:15;;;;;;;6.53;3.00;;;;;;;-148.15;100.00;61821.78;4987810;28;20642;-86
2023/10/16 10:30:44;;;;;;;5.32;3.13;;;;;;;-148.15;100.00;61821.78;4976571;28;20125;-86
2023/10/16 10:33:13;;;;;;;5.63;3.20;;;;;;;-148.15;100.00;61821.78;4990981;28;20030;-86
2023/10/16 10:35:39;;;;;;;8.77;2.45;;;;;;;-148.15;100.00;61821.78;4976370;28;20090;-86
2023/10/16 10:38:29;;;;;;;7.33;2.40;;;;;;;-148.15;100.00;61821.78;4972718;28;20023;-86
2023/10/16 10:41:04;;;;;;;6.72;3.00;;;;;;;-148.15;100.00;61821.78;4977768;28;20521;-85
2023/10/16 10:43:46;;;;;;;4.22;3.22;;;;;;;-148.15;100.00;61821.78;4987605;28;20554;-86
2023/10/16 10:46:31;;;;;;;5.07;2.70;;;;;;;-148.15;100.00;61821.78;4972385;28;20031;-86
2023/10/16 10:49:01;;;;;;;3.47;2.55;;;;;;;-148.15;100.00;61821.78;4984002;28;20053;-85
2023/10/16 10:51:30;;;;;;;5.15;2.78;;;;;;;-148.15;100.00;61821.78;4973540;28;20031;-86
2023/10/16 10:53:57;;;;;;;8.53;3.30;;;;;;;-148.15;100.00;61821.78;4972241;28;20162;-86
2023/10/16 10:56:41;;;;;;;5.53;3.20;;;;;;;-148.15;100.00;61821.78;4972506;28;20027;-86
2023/10/16 10:59:09;;;;;;;6.07;2.70;;;;;;;-148.15;100.00;61821.78;4979970;28;20031;-86
2023/10/16 11:01:37;;;;;;;5.15;2.80;;;;;;;-148.15;100.00;61821.78;4971082;28;20077;-86
2023/10/16 11:04:09;;;;;;;7.40;2.65;;;;;;;-148.15;100.00;61821.78;4972154;28;20474;-86
2023/10/16 11:06:48;;;;;;;5.47;2.22;;;;;;;-148.15;100.00;61821.78;4971399;28;20023;-87
2023/10/16 11:09:29;;;;;;;4.37;2.10;;;;;;;-148.15;100.00;61821.78;4971619;28;20030;-87
2023/10/16 11:11:54;;;;;;;6.10;1.90;;;;;;;-148.15;100.00;61821.78;4971783;28;20089;-86
2023/10/16 11:14:36;;;;;;;3.50;1.50;;;;;;;-148.15;100.00;61821.78;4971728;28;20026;-87
2023/10/16 11:17:05;;;;;;;4.00;1.98;;;;;;;-148.15;100.00;61821.78;4970070;28;20482;-87
2023/10/16 11:19:49;;;;;;;6.90;1.67;;;;;;;-148.15;100.00;61821.78;4971374;28;20018;-87
2023/10/16 11:22:20;;;;;;;2.47;1.40;;;;;;;-148.15;100.00;61821.78;4971189;28;20054;-86
2023/10/16 11:24:47;;;;;;;1.88;1.20;;;;;;;-148.15;100.00;61821.78;4970720;28;20081;-87
2023/10/16 11:27:13;;;;;;;4.07;1.70;;;;;;;-148.15;100.00;61821.78;4970781;28;20033;-87
2023/10/16 11:29:40;;;;;;;2.97;1.40;;;;;;;-148.15;100.00;61821.78;4971314;28;20852;-87
2023/10/16 11:32:09;;;;;;;2.88;1.20;;;;;;;-148.15;100.00;61821.78;4973934;28;20031;-87
2023/10/16 11:34:45;;;;;;;4.13;1.08;;;;;;;-148.15;100.00;61821.78;4973637;28;20027;-87
2023/10/16 11:37:13;;;;;;;6.57;1.42;;;;;;;-148.15;100.00;61821.78;4970729;28;20408;-87
2023/10/16 11:39:39;;;;;;;4.13;1.20;;;;;;;-148.15;100.00;61821.78;4971207;28;20050;-87
2023/10/16 11:42:09;;;;;;;1.67;0.77;;;;;;;-148.15;100.00;61821.78;4978366;28;20069;-87
2023/10/16 11:44:38;;;;;;;3.95;1.25;;;;;;;-148.15;100.00;61821.78;4983624;28;20054;-87
2023/10/16 11:47:07;;;;;;;2.03;1.20;;;;;;;-148.15;100.00;61821.78;4979008;28;20030;-87
2023/10/16 11:49:37;;;;;;;2.27;1.03;;;;;;;-148.15;100.00;61821.78;4977779;28;20099;-87
2023/10/16 11:52:19;;;;;;;2.95;1.30;;;;;;;-148.15;100.00;61821.78;4977952;28;20438;-87
2023/10/16 11:54:48;;;;;;;3.13;1.15;;;;;;;-148.15;100.00;61821.78;4992808;28;20042;-87
2023/10/16 11:57:14;;;;;;;2.10;1.35;;;;;;;-148.15;100.00;61821.78;4979678;28;20046;-87
2023/10/16 11:59:40;;;;;;;4.03;1.30;;;;;;;-148.15;100.00;61821.78;4974800;28;20027;-87
2023/10/16 12:02:12;;;;;;;5.13;1.40;;;;;;;-148.15;100.00;61821.78;4972395;28;20033;-88
2023/10/16 12:04:40;;;;;;;2.95;1.60;;;;;;;-148.15;100.00;61821.78;4971338;28;20081;-87
2023/10/16 12:07:07;;;;;;;2.70;1.50;;;;;;;-148.15;100.00;61821.78;4971416;28;20018;-88
2023/10/16 12:09:42;;;;;;;2.67;1.20;;;;;;;-148.15;100.00;61821.78;4970448;28;20114;-87
2023/10/16 12:12:16;;;;;;;2.38;1.30;;;;;;;-148.15;100.00;61821.78;4972491;28;20037;-87
2023/10/16 12:14:42;;;;;;;3.20;1.55;;;;;;;-148.15;100.00;61821.78;4970723;28;20038;-87
2023/10/16 12:17:11;;;;;;;3.00;1.40;;;;;;;-148.15;100.00;61821.78;4970022;28;20474;-88
2023/10/16 12:19:37;;;;;;;2.53;1.30;;;;;;;-148.15;100.00;61821.78;4974522;28;20249;-88
2023/10/16 12:22:03;;;;;;;5.27;1.20;;;;;;;-148.15;100.00;61821.78;4970026;28;20704;-87
2023/10/16 12:24:29;;;;;;;4.10;1.25;;;;;;;-148.15;100.00;61821.78;4975288;28;20034;-88
2023/10/16 12:26:54;;;;;;;2.93;1.20;;;;;;;-148.15;100.00;61821.78;4980251;28;20042;-87
2023/10/16 12:29:20;;;;;;;3.25;1.27;;;;;;;-148.15;100.00;61821.78;4969793;28;20110;-87
2023/10/16 12:31:45;;;;;;;2.10;1.00;;;;;;;-148.15;100.00;61821.78;4978549;28;20462;-87
2023/10/16 12:34:11;;;;;;;1.73;1.20;;;;;;;-148.15;100.00;61821.78;4969807;28;20027;-87
2023/10/16 12:36:42;;;;;;;2.97;1.45;;;;;;;-148.15;100.00;61821.78;4969954;28;20053;-87
2023/10/16 12:39:16;;;;;;;3.13;1.48;;;;;;;-148.15;100.00;61821.78;4970379;28;20034;-87
2023/10/16 12:41:42;;;;;;;3.25;1.60;;;;;;;-148.15;100.00;61821.78;4970041;28;20176;-88
2023/10/16 12:44:09;;;;;;;3.90;1.27;;;;;;;-148.15;100.00;61821.78;4986178;28;20034;-88
2023/10/16 12:46:36;;;;;;;2.58;1.42;;;;;;;-148.15;100.00;61821.78;4968608;28;20034;-88
2023/10/16 12:49:06;;;;;;;6.00;1.38;;;;;;;-148.15;100.00;61821.78;4971106;28;20031;-88
2023/10/16 12:51:33;;;;;;;2.47;1.50;;;;;;;-148.15;100.00;61821.78;4969731;28;20059;-88
2023/10/16 12:54:03;;;;;;;2.15;1.52;;;;;;;-148.15;100.00;61821.78;4981702;28;20030;-88
2023/10/16 12:56:28;;;;;;;3.90;1.50;;;;;;;-148.15;100.00;61821.78;4973233;28;20027;-89
2023/10/16 12:58:53;;;;;;;5.73;1.67;;;;;;;-148.15;100.00;61821.78;4979164;28;20297;-87
2023/10/16 13:01:21;;;;;;;3.37;1.60;;;;;;;-148.15;100.00;61821.78;4987815;28;20033;-88
2023/10/16 13:03:47;;;;;;;2.08;1.65;;;;;;;-148.15;100.00;61821.78;4977160;28;20161;-88
2023/10/16 13:06:14;;;;;;;4.20;1.50;;;;;;;-148.15;100.00;61821.78;4973971;28;20026;-88
2023/10/16 13:08:41;;;;;;;4.80;1.60;;;;;;;-148.15;100.00;61821.78;4986799;28;20026;-88
2023/10/16 13:11:07;;;;;;;3.20;1.60;;;;;;;-148.15;100.00;61821.78;4990507;28;20038;-88
2023/10/16 13:13:33;;;;;;;4.50;1.50;;;;;;;-148.15;100.00;61821.78;4973635;28;20118;-87
2023/10/16 13:16:00;;;;;;;3.42;1.63;;;;;;;-148.15;100.00;61821.78;4973319;28;20027;-88
2023/10/16 13:18:29;;;;;;;4.03;1.70;;;;;;;-148.15;100.00;61821.78;4976554;28;20073;-87
2023/10/16 13:21:13;;;;;;;5.75;2.00;;;;;;;-148.15;100.00;61821.78;4979614;28;20033;-87
2023/10/16 13:23:39;;;;;;;2.70;1.57;;;;;;;-148.15;100.00;61821.78;4972558;28;20023;-88
2023/10/16 13:26:08;;;;;;;6.37;1.80;;;;;;;-148.15;100.00;61821.78;4978187;28;20329;-90